sensor_id;sensor_type;location;lat;lon;timestamp;P1;durP1;ratioP1;P2;durP2;ratioP2
11616;SDS011;5864;52.998;9.068;2022-12-29T00:00:21;4.40;;;3.00;;
11616;SDS011;5864;52.998;9.068;2022-12-29T00:02:53;3.63;;;3.10;;
11616;SDS011;5864;52.998;9.068;2022-12-29T00:05:20;3.43;;;2.87;;
11616;SDS011;5864;52.998;9.068;2022-12-29T00:07:48;3.30;;;2.77;;
11616;SDS011;5864;52.998;9.068;2022-12-29T00:10:15;4.57;;;2.73;;
11616;SDS011;5864;52.998;9.068;2022-12-29T00:12:42;3.10;;;2.80;;
11616;SDS011;5864;52.998;9.068;2022-12-29T00:15:27;3.37;;;2.70;;
11616;SDS011;5864;52.998;9.068;2022-12-29T00:18:05;3.30;;;3.00;;
11616;SDS011;5864;52.998;9.068;2022-12-29T00:20:33;3.37;;;3.00;;
11616;SDS011;5864;52.998;9.068;2022-12-29T00:23:19;3.50;;;3.00;;
11616;SDS011;5864;52.998;9.068;2022-12-29T00:26:04;4.43;;;3.07;;
11616;SDS011;5864;52.998;9.068;2022-12-29T00:28:54;4.53;;;3.63;;
11616;SDS011;5864;52.998;9.068;2022-12-29T00:31:39;3.67;;;3.37;;
11616;SDS011;5864;52.998;9.068;2022-12-29T00:34:25;3.60;;;3.30;;
11616;SDS011;5864;52.998;9.068;2022-12-29T00:37:10;3.63;;;3.33;;
11616;SDS011;5864;52.998;9.068;2022-12-29T00:39:38;3.60;;;3.30;;
11616;SDS011;5864;52.998;9.068;2022-12-29T00:42:33;3.73;;;3.37;;
11616;SDS011;5864;52.998;9.068;2022-12-29T00:45:18;3.63;;;3.33;;
11616;SDS011;5864;52.998;9.068;2022-12-29T00:47:45;3.83;;;3.47;;
11616;SDS011;5864;52.998;9.068;2022-12-29T00:50:14;3.77;;;3.47;;
11616;SDS011;5864;52.998;9.068;2022-12-29T00:52:41;4.30;;;3.90;;
11616;SDS011;5864;52.998;9.068;2022-12-29T00:55:08;4.80;;;3.60;;
11616;SDS011;5864;52.998;9.068;2022-12-29T00:57:36;4.10;;;3.80;;
11616;SDS011;5864;52.998;9.068;2022-12-29T01:00:03;4.53;;;3.70;;
11616;SDS011;5864;52.998;9.068;2022-12-29T01:02:31;4.07;;;3.73;;
11616;SDS011;5864;52.998;9.068;2022-12-29T01:04:59;5.73;;;4.30;;
11616;SDS011;5864;52.998;9.068;2022-12-29T01:07:28;3.80;;;3.47;;
11616;SDS011;5864;52.998;9.068;2022-12-29T01:09:55;3.70;;;3.40;;
11616;SDS011;5864;52.998;9.068;2022-12-29T01:12:37;4.93;;;3.60;;
11616;SDS011;5864;52.998;9.068;2022-12-29T01:15:10;3.43;;;3.13;;
11616;SDS011;5864;52.998;9.068;2022-12-29T01:17:39;3.70;;;3.30;;
11616;SDS011;5864;52.998;9.068;2022-12-29T01:20:07;4.10;;;3.27;;
11616;SDS011;5864;52.998;9.068;2022-12-29T01:22:36;3.70;;;3.40;;
11616;SDS011;5864;52.998;9.068;2022-12-29T01:25:05;3.50;;;3.20;;
11616;SDS011;5864;52.998;9.068;2022-12-29T01:27:33;3.93;;;3.63;;
11616;SDS011;5864;52.998;9.068;2022-12-29T01:30:00;4.00;;;3.60;;
11616;SDS011;5864;52.998;9.068;2022-12-29T01:32:28;3.57;;;3.27;;
11616;SDS011;5864;52.998;9.068;2022-12-29T01:34:58;4.23;;;3.17;;
11616;SDS011;5864;52.998;9.068;2022-12-29T01:37:25;3.70;;;3.40;;
11616;SDS011;5864;52.998;9.068;2022-12-29T01:39:54;4.20;;;3.80;;
11616;SDS011;5864;52.998;9.068;2022-12-29T01:42:24;4.17;;;3.63;;
11616;SDS011;5864;52.998;9.068;2022-12-29T01:44:54;3.53;;;3.23;;
11616;SDS011;5864;52.998;9.068;2022-12-29T01:47:24;3.47;;;3.20;;
11616;SDS011;5864;52.998;9.068;2022-12-29T01:49:56;4.07;;;3.30;;
11616;SDS011;5864;52.998;9.068;2022-12-29T01:52:28;3.53;;;3.23;;
11616;SDS011;5864;52.998;9.068;2022-12-29T01:55:00;3.40;;;3.10;;
11616;SDS011;5864;52.998;9.068;2022-12-29T01:57:31;3.67;;;3.37;;
11616;SDS011;5864;52.998;9.068;2022-12-29T02:00:03;4.30;;;3.73;;
11616;SDS011;5864;52.998;9.068;2022-12-29T02:02:32;3.63;;;3.33;;
11616;SDS011;5864;52.998;9.068;2022-12-29T02:05:05;3.70;;;3.40;;
11616;SDS011;5864;52.998;9.068;2022-12-29T02:07:37;3.60;;;3.30;;
11616;SDS011;5864;52.998;9.068;2022-12-29T02:10:07;4.40;;;3.50;;
11616;SDS011;5864;52.998;9.068;2022-12-29T02:12:34;3.60;;;3.30;;
11616;SDS011;5864;52.998;9.068;2022-12-29T02:15:02;3.50;;;3.20;;
11616;SDS011;5864;52.998;9.068;2022-12-29T02:17:35;3.67;;;3.37;;
11616;SDS011;5864;52.998;9.068;2022-12-29T02:23:30;3.50;;;3.20;;
11616;SDS011;5864;52.998;9.068;2022-12-29T02:26:27;3.87;;;3.57;;
11616;SDS011;5864;52.998;9.068;2022-12-29T02:32:05;3.97;;;3.27;;
11616;SDS011;5864;52.998;9.068;2022-12-29T02:34:41;3.33;;;3.03;;
11616;SDS011;5864;52.998;9.068;2022-12-29T02:37:17;3.63;;;3.33;;
11616;SDS011;5864;52.998;9.068;2022-12-29T02:39:50;2.97;;;2.77;;
11616;SDS011;5864;52.998;9.068;2022-12-29T02:42:24;3.03;;;2.83;;
11616;SDS011;5864;52.998;9.068;2022-12-29T02:45:02;3.37;;;3.07;;
11616;SDS011;5864;52.998;9.068;2022-12-29T02:47:36;3.37;;;3.13;;
11616;SDS011;5864;52.998;9.068;2022-12-29T02:50:08;3.43;;;2.90;;
11616;SDS011;5864;52.998;9.068;2022-12-29T02:52:46;3.17;;;2.97;;
11616;SDS011;5864;52.998;9.068;2022-12-29T02:55:23;2.97;;;2.77;;
11616;SDS011;5864;52.998;9.068;2022-12-29T02:58:02;3.27;;;3.07;;
11616;SDS011;5864;52.998;9.068;2022-12-29T03:00:44;2.97;;;2.77;;
11616;SDS011;5864;52.998;9.068;2022-12-29T03:03:25;2.80;;;2.60;;
11616;SDS011;5864;52.998;9.068;2022-12-29T03:06:02;3.00;;;2.70;;
11616;SDS011;5864;52.998;9.068;2022-12-29T03:08:44;3.10;;;2.60;;
11616;SDS011;5864;52.998;9.068;2022-12-29T03:11:17;3.63;;;2.40;;
11616;SDS011;5864;52.998;9.068;2022-12-29T03:14:02;2.03;;;1.90;;
11616;SDS011;5864;52.998;9.068;2022-12-29T03:16:55;2.00;;;1.90;;
11616;SDS011;5864;52.998;9.068;2022-12-29T03:19:30;2.43;;;1.90;;
11616;SDS011;5864;52.998;9.068;2022-12-29T03:22:00;2.80;;;1.63;;
11616;SDS011;5864;52.998;9.068;2022-12-29T03:24:47;1.77;;;1.57;;
11616;SDS011;5864;52.998;9.068;2022-12-29T03:27:17;1.83;;;1.73;;
11616;SDS011;5864;52.998;9.068;2022-12-29T03:29:48;2.33;;;1.53;;
11616;SDS011;5864;52.998;9.068;2022-12-29T03:32:21;1.80;;;1.63;;
11616;SDS011;5864;52.998;9.068;2022-12-29T03:34:52;2.47;;;1.73;;
11616;SDS011;5864;52.998;9.068;2022-12-29T03:37:21;1.70;;;1.60;;
11616;SDS011;5864;52.998;9.068;2022-12-29T03:39:53;2.07;;;1.87;;
11616;SDS011;5864;52.998;9.068;2022-12-29T03:42:21;1.73;;;1.63;;
11616;SDS011;5864;52.998;9.068;2022-12-29T03:44:53;2.00;;;1.80;;
11616;SDS011;5864;52.998;9.068;2022-12-29T03:47:22;1.90;;;1.70;;
11616;SDS011;5864;52.998;9.068;2022-12-29T03:49:52;1.97;;;1.77;;
11616;SDS011;5864;52.998;9.068;2022-12-29T03:52:19;3.23;;;1.90;;
11616;SDS011;5864;52.998;9.068;2022-12-29T03:54:47;2.00;;;1.60;;
11616;SDS011;5864;52.998;9.068;2022-12-29T03:57:14;1.60;;;1.50;;
11616;SDS011;5864;52.998;9.068;2022-12-29T03:59:42;1.60;;;1.50;;
11616;SDS011;5864;52.998;9.068;2022-12-29T04:02:09;2.40;;;1.70;;
11616;SDS011;5864;52.998;9.068;2022-12-29T04:04:37;1.60;;;1.40;;
11616;SDS011;5864;52.998;9.068;2022-12-29T04:07:05;1.70;;;1.60;;
11616;SDS011;5864;52.998;9.068;2022-12-29T04:09:33;1.90;;;1.80;;
11616;SDS011;5864;52.998;9.068;2022-12-29T04:12:00;1.97;;;1.87;;
11616;SDS011;5864;52.998;9.068;2022-12-29T04:14:30;2.03;;;1.93;;
11616;SDS011;5864;52.998;9.068;2022-12-29T04:16:58;1.70;;;1.60;;
11616;SDS011;5864;52.998;9.068;2022-12-29T04:19:26;2.30;;;2.10;;
11616;SDS011;5864;52.998;9.068;2022-12-29T04:21:53;2.20;;;2.00;;
11616;SDS011;5864;52.998;9.068;2022-12-29T04:24:22;2.20;;;1.93;;
11616;SDS011;5864;52.998;9.068;2022-12-29T04:26:49;2.37;;;2.17;;
11616;SDS011;5864;52.998;9.068;2022-12-29T04:29:17;2.03;;;1.93;;
11616;SDS011;5864;52.998;9.068;2022-12-29T04:31:44;3.03;;;2.20;;
11616;SDS011;5864;52.998;9.068;2022-12-29T04:34:12;2.13;;;2.03;;
11616;SDS011;5864;52.998;9.068;2022-12-29T04:36:39;2.30;;;2.10;;
11616;SDS011;5864;52.998;9.068;2022-12-29T04:39:07;2.63;;;2.03;;
11616;SDS011;5864;52.998;9.068;2022-12-29T04:41:36;2.60;;;2.40;;
11616;SDS011;5864;52.998;9.068;2022-12-29T04:44:04;2.40;;;2.20;;
11616;SDS011;5864;52.998;9.068;2022-12-29T04:46:31;2.87;;;2.60;;
11616;SDS011;5864;52.998;9.068;2022-12-29T04:48:59;2.70;;;2.40;;
11616;SDS011;5864;52.998;9.068;2022-12-29T04:51:30;2.50;;;2.30;;
11616;SDS011;5864;52.998;9.068;2022-12-29T04:53:57;3.60;;;2.33;;
11616;SDS011;5864;52.998;9.068;2022-12-29T04:56:24;2.57;;;2.37;;
11616;SDS011;5864;52.998;9.068;2022-12-29T04:58:53;2.60;;;2.40;;
11616;SDS011;5864;52.998;9.068;2022-12-29T05:01:21;2.50;;;2.30;;
11616;SDS011;5864;52.998;9.068;2022-12-29T05:03:49;2.60;;;2.40;;
11616;SDS011;5864;52.998;9.068;2022-12-29T05:06:17;2.50;;;2.30;;
11616;SDS011;5864;52.998;9.068;2022-12-29T05:08:45;2.40;;;2.20;;
11616;SDS011;5864;52.998;9.068;2022-12-29T05:11:13;2.83;;;2.63;;
11616;SDS011;5864;52.998;9.068;2022-12-29T05:13:40;2.40;;;2.20;;
11616;SDS011;5864;52.998;9.068;2022-12-29T05:16:12;2.10;;;1.90;;
11616;SDS011;5864;52.998;9.068;2022-12-29T05:18:40;3.23;;;2.40;;
11616;SDS011;5864;52.998;9.068;2022-12-29T05:21:07;2.40;;;2.20;;
11616;SDS011;5864;52.998;9.068;2022-12-29T05:23:35;2.37;;;2.17;;
11616;SDS011;5864;52.998;9.068;2022-12-29T05:26:02;2.47;;;2.17;;
11616;SDS011;5864;52.998;9.068;2022-12-29T05:28:30;2.23;;;2.00;;
11616;SDS011;5864;52.998;9.068;2022-12-29T05:30:57;2.13;;;2.00;;
11616;SDS011;5864;52.998;9.068;2022-12-29T05:33:26;2.17;;;1.90;;
11616;SDS011;5864;52.998;9.068;2022-12-29T05:35:54;1.73;;;1.63;;
11616;SDS011;5864;52.998;9.068;2022-12-29T05:38:21;1.70;;;1.50;;
11616;SDS011;5864;52.998;9.068;2022-12-29T05:40:49;2.03;;;1.60;;
11616;SDS011;5864;52.998;9.068;2022-12-29T05:43:16;1.77;;;1.60;;
11616;SDS011;5864;52.998;9.068;2022-12-29T05:45:47;1.60;;;1.50;;
11616;SDS011;5864;52.998;9.068;2022-12-29T05:48:16;2.30;;;1.60;;
11616;SDS011;5864;52.998;9.068;2022-12-29T05:50:47;2.07;;;1.80;;
11616;SDS011;5864;52.998;9.068;2022-12-29T05:53:16;3.27;;;1.60;;
11616;SDS011;5864;52.998;9.068;2022-12-29T05:55:44;2.80;;;1.60;;
11616;SDS011;5864;52.998;9.068;2022-12-29T05:58:13;1.60;;;1.50;;
11616;SDS011;5864;52.998;9.068;2022-12-29T06:00:40;1.60;;;1.50;;
11616;SDS011;5864;52.998;9.068;2022-12-29T06:03:08;2.00;;;1.50;;
11616;SDS011;5864;52.998;9.068;2022-12-29T06:05:36;1.60;;;1.40;;
11616;SDS011;5864;52.998;9.068;2022-12-29T06:08:05;1.93;;;1.50;;
11616;SDS011;5864;52.998;9.068;2022-12-29T06:10:32;1.60;;;1.50;;
11616;SDS011;5864;52.998;9.068;2022-12-29T06:13:00;2.17;;;1.50;;
11616;SDS011;5864;52.998;9.068;2022-12-29T06:15:29;1.83;;;1.37;;
11616;SDS011;5864;52.998;9.068;2022-12-29T06:17:58;2.23;;;1.30;;
11616;SDS011;5864;52.998;9.068;2022-12-29T06:20:27;2.07;;;1.40;;
11616;SDS011;5864;52.998;9.068;2022-12-29T06:22:54;2.23;;;1.43;;
11616;SDS011;5864;52.998;9.068;2022-12-29T06:25:23;2.30;;;1.40;;
11616;SDS011;5864;52.998;9.068;2022-12-29T06:27:51;1.90;;;1.50;;
11616;SDS011;5864;52.998;9.068;2022-12-29T06:30:18;1.80;;;1.50;;
11616;SDS011;5864;52.998;9.068;2022-12-29T06:32:46;1.50;;;1.40;;
11616;SDS011;5864;52.998;9.068;2022-12-29T06:35:13;4.10;;;1.70;;
11616;SDS011;5864;52.998;9.068;2022-12-29T06:37:41;3.77;;;1.87;;
11616;SDS011;5864;52.998;9.068;2022-12-29T06:40:09;1.67;;;1.53;;
11616;SDS011;5864;52.998;9.068;2022-12-29T06:42:39;2.10;;;1.50;;
11616;SDS011;5864;52.998;9.068;2022-12-29T06:45:06;1.87;;;1.70;;
11616;SDS011;5864;52.998;9.068;2022-12-29T06:47:35;2.57;;;1.70;;
11616;SDS011;5864;52.998;9.068;2022-12-29T06:50:03;1.70;;;1.60;;
11616;SDS011;5864;52.998;9.068;2022-12-29T06:52:30;1.87;;;1.60;;
11616;SDS011;5864;52.998;9.068;2022-12-29T06:54:59;2.03;;;1.40;;
11616;SDS011;5864;52.998;9.068;2022-12-29T06:57:29;3.33;;;1.50;;
11616;SDS011;5864;52.998;9.068;2022-12-29T06:59:57;2.00;;;1.40;;
11616;SDS011;5864;52.998;9.068;2022-12-29T07:02:25;3.13;;;1.70;;
11616;SDS011;5864;52.998;9.068;2022-12-29T07:04:52;1.57;;;1.47;;
11616;SDS011;5864;52.998;9.068;2022-12-29T07:07:20;3.30;;;1.57;;
11616;SDS011;5864;52.998;9.068;2022-12-29T07:09:47;3.60;;;1.70;;
11616;SDS011;5864;52.998;9.068;2022-12-29T07:12:15;2.70;;;1.50;;
11616;SDS011;5864;52.998;9.068;2022-12-29T07:14:42;1.60;;;1.20;;
11616;SDS011;5864;52.998;9.068;2022-12-29T07:17:11;2.23;;;1.60;;
11616;SDS011;5864;52.998;9.068;2022-12-29T07:19:38;1.40;;;1.00;;
11616;SDS011;5864;52.998;9.068;2022-12-29T07:22:06;2.77;;;1.10;;
11616;SDS011;5864;52.998;9.068;2022-12-29T07:24:33;2.13;;;1.60;;
11616;SDS011;5864;52.998;9.068;2022-12-29T07:27:01;3.13;;;1.00;;
11616;SDS011;5864;52.998;9.068;2022-12-29T07:29:28;1.27;;;1.10;;
11616;SDS011;5864;52.998;9.068;2022-12-29T07:31:58;1.37;;;1.00;;
11616;SDS011;5864;52.998;9.068;2022-12-29T07:34:27;2.03;;;0.97;;
11616;SDS011;5864;52.998;9.068;2022-12-29T07:36:55;2.93;;;1.20;;
11616;SDS011;5864;52.998;9.068;2022-12-29T07:39:22;2.97;;;1.30;;
11616;SDS011;5864;52.998;9.068;2022-12-29T07:41:50;2.43;;;1.27;;
11616;SDS011;5864;52.998;9.068;2022-12-29T07:44:18;2.03;;;1.33;;
11616;SDS011;5864;52.998;9.068;2022-12-29T07:46:45;3.93;;;1.13;;
11616;SDS011;5864;52.998;9.068;2022-12-29T07:49:13;1.53;;;1.27;;
11616;SDS011;5864;52.998;9.068;2022-12-29T07:51:42;2.00;;;1.17;;
11616;SDS011;5864;52.998;9.068;2022-12-29T07:54:09;1.37;;;1.10;;
11616;SDS011;5864;52.998;9.068;2022-12-29T07:56:38;1.30;;;1.00;;
11616;SDS011;5864;52.998;9.068;2022-12-29T07:59:06;1.73;;;1.00;;
11616;SDS011;5864;52.998;9.068;2022-12-29T08:01:33;2.27;;;1.40;;
11616;SDS011;5864;52.998;9.068;2022-12-29T08:04:01;3.07;;;1.00;;
11616;SDS011;5864;52.998;9.068;2022-12-29T08:06:28;2.60;;;1.07;;
11616;SDS011;5864;52.998;9.068;2022-12-29T08:08:57;1.40;;;0.90;;
11616;SDS011;5864;52.998;9.068;2022-12-29T08:11:26;3.37;;;1.13;;
11616;SDS011;5864;52.998;9.068;2022-12-29T08:13:54;3.27;;;1.50;;
11616;SDS011;5864;52.998;9.068;2022-12-29T08:16:21;3.43;;;1.20;;
11616;SDS011;5864;52.998;9.068;2022-12-29T08:18:48;4.10;;;1.13;;
11616;SDS011;5864;52.998;9.068;2022-12-29T08:21:16;4.50;;;1.40;;
11616;SDS011;5864;52.998;9.068;2022-12-29T08:23:43;2.93;;;1.20;;
11616;SDS011;5864;52.998;9.068;2022-12-29T08:26:13;4.53;;;1.30;;
11616;SDS011;5864;52.998;9.068;2022-12-29T08:28:40;3.27;;;1.10;;
11616;SDS011;5864;52.998;9.068;2022-12-29T08:31:07;1.50;;;1.00;;
11616;SDS011;5864;52.998;9.068;2022-12-29T08:33:35;2.80;;;1.43;;
11616;SDS011;5864;52.998;9.068;2022-12-29T08:36:03;4.80;;;1.53;;
11616;SDS011;5864;52.998;9.068;2022-12-29T08:38:33;1.23;;;1.03;;
11616;SDS011;5864;52.998;9.068;2022-12-29T08:41:00;2.50;;;0.90;;
11616;SDS011;5864;52.998;9.068;2022-12-29T08:43:29;1.80;;;0.90;;
11616;SDS011;5864;52.998;9.068;2022-12-29T08:45:57;1.53;;;1.10;;
11616;SDS011;5864;52.998;9.068;2022-12-29T08:48:24;2.47;;;1.03;;
11616;SDS011;5864;52.998;9.068;2022-12-29T08:50:52;2.10;;;1.00;;
11616;SDS011;5864;52.998;9.068;2022-12-29T08:53:20;1.30;;;1.10;;
11616;SDS011;5864;52.998;9.068;2022-12-29T08:55:53;2.73;;;0.90;;
11616;SDS011;5864;52.998;9.068;2022-12-29T08:58:22;2.63;;;1.23;;
11616;SDS011;5864;52.998;9.068;2022-12-29T09:00:53;2.77;;;1.33;;
11616;SDS011;5864;52.998;9.068;2022-12-29T09:03:21;2.40;;;1.20;;
11616;SDS011;5864;52.998;9.068;2022-12-29T09:05:49;4.33;;;1.70;;
11616;SDS011;5864;52.998;9.068;2022-12-29T09:08:17;2.63;;;1.37;;
11616;SDS011;5864;52.998;9.068;2022-12-29T09:10:44;2.13;;;1.17;;
11616;SDS011;5864;52.998;9.068;2022-12-29T09:13:13;4.80;;;1.50;;
11616;SDS011;5864;52.998;9.068;2022-12-29T09:15:41;1.77;;;0.90;;
11616;SDS011;5864;52.998;9.068;2022-12-29T09:18:11;2.87;;;1.50;;
11616;SDS011;5864;52.998;9.068;2022-12-29T09:20:38;3.57;;;1.50;;
11616;SDS011;5864;52.998;9.068;2022-12-29T09:23:06;2.70;;;1.40;;
11616;SDS011;5864;52.998;9.068;2022-12-29T09:25:33;2.73;;;1.40;;
11616;SDS011;5864;52.998;9.068;2022-12-29T09:28:01;6.03;;;1.83;;
11616;SDS011;5864;52.998;9.068;2022-12-29T09:30:33;3.37;;;1.30;;
11616;SDS011;5864;52.998;9.068;2022-12-29T09:33:00;3.23;;;1.40;;
11616;SDS011;5864;52.998;9.068;2022-12-29T09:35:29;2.70;;;1.20;;
11616;SDS011;5864;52.998;9.068;2022-12-29T09:37:56;4.00;;;1.67;;
11616;SDS011;5864;52.998;9.068;2022-12-29T09:40:26;2.43;;;1.20;;
11616;SDS011;5864;52.998;9.068;2022-12-29T09:43:00;5.93;;;1.60;;
11616;SDS011;5864;52.998;9.068;2022-12-29T09:45:47;3.30;;;1.20;;
11616;SDS011;5864;52.998;9.068;2022-12-29T09:48:24;6.00;;;1.70;;
11616;SDS011;5864;52.998;9.068;2022-12-29T09:50:57;5.13;;;1.63;;
11616;SDS011;5864;52.998;9.068;2022-12-29T09:53:29;4.03;;;1.47;;
11616;SDS011;5864;52.998;9.068;2022-12-29T09:56:01;3.83;;;1.50;;
11616;SDS011;5864;52.998;9.068;2022-12-29T09:58:30;4.40;;;1.60;;
11616;SDS011;5864;52.998;9.068;2022-12-29T10:01:03;3.50;;;1.10;;
11616;SDS011;5864;52.998;9.068;2022-12-29T10:03:35;6.10;;;2.13;;
11616;SDS011;5864;52.998;9.068;2022-12-29T10:06:13;4.83;;;1.63;;
11616;SDS011;5864;52.998;9.068;2022-12-29T10:08:52;3.63;;;1.10;;
11616;SDS011;5864;52.998;9.068;2022-12-29T10:11:28;5.97;;;1.30;;
11616;SDS011;5864;52.998;9.068;2022-12-29T10:14:15;6.93;;;1.60;;
11616;SDS011;5864;52.998;9.068;2022-12-29T10:16:54;5.87;;;1.20;;
11616;SDS011;5864;52.998;9.068;2022-12-29T10:19:35;7.03;;;1.73;;
11616;SDS011;5864;52.998;9.068;2022-12-29T10:22:30;4.73;;;1.50;;
11616;SDS011;5864;52.998;9.068;2022-12-29T10:25:10;4.97;;;1.40;;
11616;SDS011;5864;52.998;9.068;2022-12-29T10:27:41;4.83;;;1.40;;
11616;SDS011;5864;52.998;9.068;2022-12-29T10:30:13;3.87;;;1.47;;
11616;SDS011;5864;52.998;9.068;2022-12-29T10:32:43;6.10;;;1.70;;
11616;SDS011;5864;52.998;9.068;2022-12-29T10:35:16;5.40;;;1.60;;
11616;SDS011;5864;52.998;9.068;2022-12-29T10:37:48;4.60;;;1.50;;
11616;SDS011;5864;52.998;9.068;2022-12-29T10:40:22;4.83;;;1.07;;
11616;SDS011;5864;52.998;9.068;2022-12-29T10:42:56;2.30;;;1.20;;
11616;SDS011;5864;52.998;9.068;2022-12-29T10:45:28;3.07;;;1.27;;
11616;SDS011;5864;52.998;9.068;2022-12-29T10:47:59;3.67;;;1.23;;
11616;SDS011;5864;52.998;9.068;2022-12-29T10:50:30;2.87;;;1.10;;
11616;SDS011;5864;52.998;9.068;2022-12-29T10:53:00;3.63;;;1.33;;
11616;SDS011;5864;52.998;9.068;2022-12-29T10:55:32;3.90;;;1.50;;
11616;SDS011;5864;52.998;9.068;2022-12-29T10:58:04;3.83;;;1.70;;
11616;SDS011;5864;52.998;9.068;2022-12-29T11:00:33;4.33;;;1.80;;
11616;SDS011;5864;52.998;9.068;2022-12-29T11:03:06;6.17;;;2.10;;
11616;SDS011;5864;52.998;9.068;2022-12-29T11:05:44;6.10;;;1.80;;
11616;SDS011;5864;52.998;9.068;2022-12-29T11:08:18;6.20;;;1.83;;
11616;SDS011;5864;52.998;9.068;2022-12-29T11:10:56;5.77;;;1.70;;
11616;SDS011;5864;52.998;9.068;2022-12-29T11:13:31;7.00;;;1.87;;
11616;SDS011;5864;52.998;9.068;2022-12-29T11:16:14;6.90;;;1.80;;
11616;SDS011;5864;52.998;9.068;2022-12-29T11:18:53;4.90;;;1.70;;
11616;SDS011;5864;52.998;9.068;2022-12-29T11:21:25;3.87;;;1.50;;
11616;SDS011;5864;52.998;9.068;2022-12-29T11:23:56;4.00;;;1.60;;
11616;SDS011;5864;52.998;9.068;2022-12-29T11:26:26;7.27;;;2.00;;
11616;SDS011;5864;52.998;9.068;2022-12-29T11:31:53;3.93;;;1.60;;
11616;SDS011;5864;52.998;9.068;2022-12-29T11:34:21;8.63;;;1.80;;
11616;SDS011;5864;52.998;9.068;2022-12-29T11:36:51;5.43;;;1.70;;
11616;SDS011;5864;52.998;9.068;2022-12-29T11:39:30;5.67;;;1.70;;
11616;SDS011;5864;52.998;9.068;2022-12-29T11:42:00;4.37;;;1.70;;
11616;SDS011;5864;52.998;9.068;2022-12-29T11:44:31;5.23;;;1.77;;
11616;SDS011;5864;52.998;9.068;2022-12-29T11:47:03;7.90;;;2.10;;
11616;SDS011;5864;52.998;9.068;2022-12-29T11:49:32;6.13;;;1.60;;
11616;SDS011;5864;52.998;9.068;2022-12-29T11:51:59;6.93;;;1.80;;
11616;SDS011;5864;52.998;9.068;2022-12-29T11:54:27;4.67;;;1.50;;
11616;SDS011;5864;52.998;9.068;2022-12-29T11:57:08;6.70;;;1.70;;
11616;SDS011;5864;52.998;9.068;2022-12-29T11:59:38;6.93;;;1.77;;
11616;SDS011;5864;52.998;9.068;2022-12-29T12:02:15;6.47;;;1.90;;
11616;SDS011;5864;52.998;9.068;2022-12-29T12:05:08;5.33;;;1.67;;
11616;SDS011;5864;52.998;9.068;2022-12-29T12:07:58;3.40;;;1.53;;
11616;SDS011;5864;52.998;9.068;2022-12-29T12:10:31;5.80;;;1.87;;
11616;SDS011;5864;52.998;9.068;2022-12-29T12:13:06;6.63;;;1.90;;
11616;SDS011;5864;52.998;9.068;2022-12-29T12:15:42;6.67;;;1.90;;
11616;SDS011;5864;52.998;9.068;2022-12-29T12:18:16;5.93;;;1.70;;
11616;SDS011;5864;52.998;9.068;2022-12-29T12:20:52;4.57;;;1.60;;
11616;SDS011;5864;52.998;9.068;2022-12-29T12:23:36;5.00;;;1.60;;
11616;SDS011;5864;52.998;9.068;2022-12-29T12:26:12;5.97;;;1.73;;
11616;SDS011;5864;52.998;9.068;2022-12-29T12:28:45;8.27;;;2.00;;
11616;SDS011;5864;52.998;9.068;2022-12-29T12:31:21;4.27;;;1.50;;
11616;SDS011;5864;52.998;9.068;2022-12-29T12:34:00;4.10;;;1.40;;
11616;SDS011;5864;52.998;9.068;2022-12-29T12:36:43;3.63;;;1.83;;
11616;SDS011;5864;52.998;9.068;2022-12-29T12:39:26;5.90;;;1.80;;
11616;SDS011;5864;52.998;9.068;2022-12-29T12:42:06;5.80;;;1.60;;
11616;SDS011;5864;52.998;9.068;2022-12-29T12:44:46;3.63;;;1.80;;
11616;SDS011;5864;52.998;9.068;2022-12-29T12:47:26;7.13;;;1.97;;
11616;SDS011;5864;52.998;9.068;2022-12-29T12:50:14;5.60;;;1.53;;
11616;SDS011;5864;52.998;9.068;2022-12-29T12:52:58;3.63;;;1.53;;
11616;SDS011;5864;52.998;9.068;2022-12-29T12:55:37;6.43;;;1.93;;
11616;SDS011;5864;52.998;9.068;2022-12-29T12:58:13;7.80;;;1.60;;
11616;SDS011;5864;52.998;9.068;2022-12-29T13:00:50;5.70;;;2.00;;
11616;SDS011;5864;52.998;9.068;2022-12-29T13:03:33;3.83;;;1.47;;
11616;SDS011;5864;52.998;9.068;2022-12-29T13:06:14;4.87;;;1.60;;
11616;SDS011;5864;52.998;9.068;2022-12-29T13:09:02;8.13;;;1.50;;
11616;SDS011;5864;52.998;9.068;2022-12-29T13:11:46;7.40;;;2.20;;
11616;SDS011;5864;52.998;9.068;2022-12-29T13:14:27;3.87;;;1.30;;
11616;SDS011;5864;52.998;9.068;2022-12-29T13:17:08;4.20;;;1.43;;
11616;SDS011;5864;52.998;9.068;2022-12-29T13:19:46;3.63;;;1.37;;
11616;SDS011;5864;52.998;9.068;2022-12-29T13:22:20;6.13;;;1.97;;
11616;SDS011;5864;52.998;9.068;2022-12-29T13:24:55;3.20;;;1.20;;
11616;SDS011;5864;52.998;9.068;2022-12-29T13:27:37;5.00;;;1.57;;
11616;SDS011;5864;52.998;9.068;2022-12-29T13:30:13;5.53;;;1.60;;
11616;SDS011;5864;52.998;9.068;2022-12-29T13:32:48;4.67;;;1.23;;
11616;SDS011;5864;52.998;9.068;2022-12-29T13:35:26;3.00;;;1.53;;
11616;SDS011;5864;52.998;9.068;2022-12-29T13:38:00;12.17;;;2.03;;
11616;SDS011;5864;52.998;9.068;2022-12-29T13:40:33;3.97;;;1.50;;
11616;SDS011;5864;52.998;9.068;2022-12-29T13:43:05;6.90;;;2.43;;
11616;SDS011;5864;52.998;9.068;2022-12-29T13:45:35;5.17;;;1.33;;
11616;SDS011;5864;52.998;9.068;2022-12-29T13:48:05;4.70;;;1.60;;
11616;SDS011;5864;52.998;9.068;2022-12-29T13:50:39;3.80;;;1.50;;
11616;SDS011;5864;52.998;9.068;2022-12-29T13:53:11;4.33;;;1.67;;
11616;SDS011;5864;52.998;9.068;2022-12-29T13:55:47;4.83;;;1.60;;
11616;SDS011;5864;52.998;9.068;2022-12-29T13:58:24;5.17;;;1.73;;
11616;SDS011;5864;52.998;9.068;2022-12-29T14:01:00;5.30;;;1.70;;
11616;SDS011;5864;52.998;9.068;2022-12-29T14:03:45;5.13;;;1.77;;
11616;SDS011;5864;52.998;9.068;2022-12-29T14:06:16;4.60;;;2.13;;
11616;SDS011;5864;52.998;9.068;2022-12-29T14:08:47;4.83;;;1.40;;
11616;SDS011;5864;52.998;9.068;2022-12-29T14:11:17;7.20;;;1.60;;
11616;SDS011;5864;52.998;9.068;2022-12-29T14:13:47;5.03;;;1.80;;
11616;SDS011;5864;52.998;9.068;2022-12-29T14:16:29;4.60;;;1.80;;
11616;SDS011;5864;52.998;9.068;2022-12-29T14:19:05;3.07;;;1.30;;
11616;SDS011;5864;52.998;9.068;2022-12-29T14:21:38;4.53;;;1.50;;
11616;SDS011;5864;52.998;9.068;2022-12-29T14:26:54;4.13;;;1.50;;
11616;SDS011;5864;52.998;9.068;2022-12-29T14:38:13;2.57;;;1.40;;
11616;SDS011;5864;52.998;9.068;2022-12-29T14:40:52;3.93;;;1.30;;
11616;SDS011;5864;52.998;9.068;2022-12-29T14:43:42;3.03;;;1.20;;
11616;SDS011;5864;52.998;9.068;2022-12-29T14:46:19;2.83;;;1.40;;
11616;SDS011;5864;52.998;9.068;2022-12-29T14:48:47;5.43;;;1.37;;
11616;SDS011;5864;52.998;9.068;2022-12-29T14:51:27;4.80;;;1.47;;
11616;SDS011;5864;52.998;9.068;2022-12-29T14:53:58;2.20;;;1.20;;
11616;SDS011;5864;52.998;9.068;2022-12-29T14:56:26;2.50;;;1.40;;
11616;SDS011;5864;52.998;9.068;2022-12-29T14:58:58;2.53;;;1.40;;
11616;SDS011;5864;52.998;9.068;2022-12-29T15:01:34;2.47;;;1.40;;
11616;SDS011;5864;52.998;9.068;2022-12-29T15:04:13;6.07;;;1.93;;
11616;SDS011;5864;52.998;9.068;2022-12-29T15:06:43;4.03;;;1.50;;
11616;SDS011;5864;52.998;9.068;2022-12-29T15:09:14;6.83;;;1.90;;
11616;SDS011;5864;52.998;9.068;2022-12-29T15:11:52;4.00;;;1.87;;
11616;SDS011;5864;52.998;9.068;2022-12-29T15:14:30;6.07;;;1.90;;
11616;SDS011;5864;52.998;9.068;2022-12-29T15:16:59;4.13;;;1.70;;
11616;SDS011;5864;52.998;9.068;2022-12-29T15:19:28;4.67;;;1.60;;
11616;SDS011;5864;52.998;9.068;2022-12-29T15:21:56;2.33;;;1.70;;
11616;SDS011;5864;52.998;9.068;2022-12-29T15:24:24;7.60;;;2.00;;
11616;SDS011;5864;52.998;9.068;2022-12-29T15:26:53;8.13;;;2.43;;
11616;SDS011;5864;52.998;9.068;2022-12-29T15:29:29;4.10;;;1.70;;
11616;SDS011;5864;52.998;9.068;2022-12-29T15:31:59;4.90;;;1.87;;
11616;SDS011;5864;52.998;9.068;2022-12-29T15:34:29;6.47;;;1.83;;
11616;SDS011;5864;52.998;9.068;2022-12-29T15:36:57;7.37;;;2.03;;
11616;SDS011;5864;52.998;9.068;2022-12-29T15:39:27;4.03;;;1.60;;
11616;SDS011;5864;52.998;9.068;2022-12-29T15:41:56;5.87;;;1.73;;
11616;SDS011;5864;52.998;9.068;2022-12-29T15:44:31;4.73;;;2.30;;
11616;SDS011;5864;52.998;9.068;2022-12-29T15:47:02;4.80;;;1.80;;
11616;SDS011;5864;52.998;9.068;2022-12-29T15:49:32;4.93;;;1.77;;